createdAt,value
2023-03-06T00:02:16.045Z,75.74
2023-03-06T00:05:19.162Z,75.58
2023-03-06T00:08:21.907Z,75.54
2023-03-06T00:11:24.640Z,75.47
2023-03-06T00:14:27.325Z,75.54
2023-03-06T00:17:29.911Z,75.48
2023-03-06T00:20:33.490Z,75.29
2023-03-06T00:23:36.494Z,75.33
2023-03-06T00:26:41.258Z,75.09
2023-03-06T00:29:45.015Z,75.63
2023-03-06T00:32:49.117Z,75.46
2023-03-06T00:35:51.861Z,75.52
2023-03-06T00:38:54.669Z,75.41
2023-03-06T00:41:57.360Z,75.24
2023-03-06T00:45:00.895Z,75.28
2023-03-06T00:48:03.827Z,74.98
2023-03-06T00:51:07.310Z,75.16
2023-03-06T00:54:09.945Z,75.27
2023-03-06T00:57:12.635Z,75.37
2023-03-06T01:00:17.749Z,75.31
2023-03-06T01:03:20.706Z,75.18
2023-03-06T01:06:26.147Z,75.33
2023-03-06T01:09:29.395Z,75.25
2023-03-06T01:12:32.003Z,75.46
2023-03-06T01:15:34.621Z,75.44
2023-03-06T01:18:37.443Z,75.53
2023-03-06T01:21:40.184Z,75.59
2023-03-06T01:24:42.856Z,75.57
2023-03-06T01:27:45.464Z,75.09
2023-03-06T01:30:48.407Z,75.44
2023-03-06T01:33:51.183Z,75.52
2023-03-06T01:36:53.815Z,75.50
2023-03-06T01:39:56.633Z,75.61
2023-03-06T01:42:59.505Z,75.52
2023-03-06T01:46:41.951Z,75.23
2023-03-06T01:49:44.973Z,75.36
2023-03-06T01:52:56.147Z,75.23
2023-03-06T01:55:59.116Z,75.35
2023-03-06T01:59:02.516Z,75.21
2023-03-06T02:02:06.592Z,75.38
2023-03-06T02:05:09.602Z,75.40
2023-03-06T02:08:14.941Z,75.62
2023-03-06T02:11:20.707Z,75.80
2023-03-06T02:14:23.858Z,75.77
2023-03-06T02:17:27.054Z,75.65
2023-03-06T02:20:48.971Z,75.84
2023-03-06T02:24:04.218Z,75.61
2023-03-06T02:27:07.412Z,75.72
2023-03-06T02:30:12.985Z,75.56
2023-03-06T02:33:17.572Z,75.83
2023-03-06T02:36:20.456Z,76.07
2023-03-06T02:39:25.192Z,76.07
2023-03-06T02:42:28.946Z,76.24
2023-03-06T02:45:42.698Z,76.32
2023-03-06T02:48:45.477Z,76.24
2023-03-06T02:51:48.162Z,76.35
2023-03-06T02:54:50.812Z,76.58
2023-03-06T02:57:53.638Z,76.29
2023-03-06T03:00:56.684Z,76.55
2023-03-06T03:03:59.878Z,76.90
2023-03-06T03:07:03.670Z,76.64
2023-03-06T03:10:07.435Z,76.61
2023-03-06T03:13:10.219Z,77.03
2023-03-06T03:16:15.624Z,76.68
2023-03-06T03:19:18.657Z,77.16
2023-03-06T03:22:21.932Z,76.74
2023-03-06T03:25:26.251Z,76.75
2023-03-06T03:28:31.156Z,76.98
2023-03-06T03:31:34.058Z,77.11
2023-03-06T03:34:38.161Z,76.98
2023-03-06T03:37:43.535Z,76.83
2023-03-06T03:40:46.476Z,76.72
2023-03-06T03:43:49.360Z,75.31
2023-03-06T03:46:52.016Z,74.66
2023-03-06T03:49:57.070Z,74.63
2023-03-06T03:53:00.672Z,74.70
2023-03-06T03:56:03.878Z,74.20
2023-03-06T03:59:07.623Z,74.11
2023-03-06T04:02:17.763Z,73.78
2023-03-06T04:05:53.941Z,73.87
2023-03-06T04:08:56.970Z,74.15
2023-03-06T04:12:00.636Z,74.25
2023-03-06T04:15:04.796Z,74.38
2023-03-06T04:18:07.638Z,74.66
2023-03-06T04:21:10.344Z,74.92
2023-03-06T04:24:13.649Z,74.97
2023-03-06T04:27:16.864Z,74.81
2023-03-06T04:30:22.576Z,74.83
2023-03-06T04:33:25.340Z,75.07
2023-03-06T04:36:30.478Z,74.84
2023-03-06T04:39:36.008Z,75.04
2023-03-06T04:42:38.693Z,74.71
2023-03-06T04:45:41.599Z,74.73
2023-03-06T04:48:44.568Z,74.40
2023-03-06T04:51:47.235Z,74.60
2023-03-06T04:54:49.911Z,74.91
2023-03-06T04:57:52.595Z,75.00
2023-03-06T05:00:55.310Z,75.24
2023-03-06T05:03:58.041Z,75.20
2023-03-06T05:07:00.752Z,75.25
2023-03-06T05:10:03.683Z,75.45
2023-03-06T05:13:06.466Z,75.55
2023-03-06T05:16:09.262Z,75.68
2023-03-06T05:19:11.900Z,75.57
2023-03-06T05:22:14.495Z,75.85
2023-03-06T05:25:17.242Z,76.36
2023-03-06T05:28:19.996Z,77.47
2023-03-06T05:31:23.146Z,78.31
2023-03-06T05:34:26.085Z,78.77
2023-03-06T05:37:28.764Z,78.87
2023-03-06T05:40:31.945Z,78.84
2023-03-06T05:43:34.586Z,79.10
2023-03-06T05:46:38.569Z,79.19
2023-03-06T05:49:41.503Z,79.21
2023-03-06T05:52:44.181Z,79.73
2023-03-06T05:55:55.029Z,79.61
2023-03-06T05:58:57.803Z,79.55
2023-03-06T06:02:01.385Z,79.63
2023-03-06T06:05:04.509Z,79.68
2023-03-06T06:08:07.178Z,79.61
2023-03-06T06:11:10.434Z,79.94
2023-03-06T06:14:13.210Z,79.97
2023-03-06T06:17:16.904Z,79.76
2023-03-06T06:20:19.680Z,79.68
2023-03-06T06:23:22.341Z,79.56
2023-03-06T06:26:24.988Z,79.51
2023-03-06T06:29:28.350Z,79.36
2023-03-06T06:32:31.106Z,79.25
2023-03-06T06:35:35.740Z,79.36
2023-03-06T06:38:38.473Z,79.51
2023-03-06T06:41:57.535Z,79.75
2023-03-06T06:45:03.064Z,79.49
2023-03-06T06:48:05.989Z,79.31
2023-03-06T06:51:08.676Z,79.46
2023-03-06T06:54:14.250Z,79.16
2023-03-06T06:57:16.918Z,78.82
2023-03-06T07:00:19.996Z,78.90
2023-03-06T07:03:22.984Z,78.96
2023-03-06T07:06:25.765Z,78.95
2023-03-06T07:09:30.938Z,78.69
2023-03-06T07:12:35.346Z,78.71
2023-03-06T07:15:38.236Z,78.70
2023-03-06T07:18:40.960Z,78.37
2023-03-06T07:21:43.580Z,78.46
2023-03-06T07:24:46.309Z,78.35
2023-03-06T07:27:54.270Z,78.23
2023-03-06T07:30:57.456Z,78.19
2023-03-06T07:34:01.921Z,78.11
2023-03-06T07:37:05.805Z,77.93
2023-03-06T07:40:10.096Z,77.77
2023-03-06T07:43:19.039Z,77.52
2023-03-06T07:46:31.059Z,77.28
2023-03-06T07:49:34.409Z,77.10
2023-03-06T07:52:37.098Z,76.94
2023-03-06T07:55:41.415Z,77.10
2023-03-06T07:58:44.858Z,76.70
2023-03-06T08:01:47.622Z,76.49
2023-03-06T08:04:54.533Z,76.45
2023-03-06T08:07:57.593Z,76.14
2023-03-06T08:11:00.385Z,75.98
2023-03-06T08:14:03.074Z,75.72
2023-03-06T08:17:05.820Z,75.59
2023-03-06T08:20:10.470Z,75.20
2023-03-06T08:23:13.406Z,75.05
2023-03-06T08:26:17.763Z,74.81
2023-03-06T08:29:20.490Z,74.77
2023-03-06T08:32:23.146Z,74.66
2023-03-06T08:35:25.895Z,74.71
2023-03-06T08:38:28.741Z,74.46
2023-03-06T08:41:31.910Z,74.44
2023-03-06T08:44:34.731Z,74.40
2023-03-06T08:47:37.578Z,74.34
2023-03-06T08:50:41.061Z,74.00
2023-03-06T08:53:44.462Z,73.61
2023-03-06T08:56:47.843Z,73.66
2023-03-06T08:59:50.574Z,73.41
2023-03-06T09:02:53.366Z,73.21
2023-03-06T09:05:55.962Z,73.19
2023-03-06T09:08:59.276Z,73.02
2023-03-06T09:12:01.934Z,72.87
2023-03-06T09:15:07.815Z,73.07
2023-03-06T09:18:10.483Z,72.84
2023-03-06T09:21:13.175Z,72.78
2023-03-06T09:24:15.866Z,72.65
2023-03-06T09:27:18.545Z,72.69
2023-03-06T09:30:21.356Z,72.63
2023-03-06T09:33:24.306Z,72.54
2023-03-06T09:36:27.003Z,72.44
2023-03-06T09:39:29.714Z,72.32
2023-03-06T09:42:34.381Z,72.34
2023-03-06T09:45:37.941Z,72.48
2023-03-06T09:48:50.077Z,72.44
2023-03-06T09:52:03.945Z,72.57
2023-03-06T09:55:15.595Z,72.62
2023-03-06T09:58:22.091Z,72.36
2023-03-06T10:01:27.877Z,72.59
2023-03-06T10:04:39.800Z,72.48
2023-03-06T10:07:45.402Z,72.41
2023-03-06T10:10:57.386Z,72.39
2023-03-06T10:14:22.663Z,72.54
2023-03-06T10:17:26.595Z,72.51
2023-03-06T10:21:18.673Z,72.24
2023-03-06T10:24:33.748Z,72.66
2023-03-06T10:27:55.308Z,72.31
2023-03-06T10:31:19.885Z,72.05
2023-03-06T10:34:24.246Z,72.17
2023-03-06T10:37:31.570Z,71.81
2023-03-06T10:40:41.555Z,71.55
2023-03-06T10:43:45.511Z,71.26
2023-03-06T10:46:50.384Z,71.24
2023-03-06T10:50:00.739Z,71.10
2023-03-06T10:53:15.584Z,70.94
2023-03-06T10:56:34.964Z,70.95
2023-03-06T10:59:50.015Z,70.76
2023-03-06T11:03:05.586Z,70.98
2023-03-06T11:06:14.174Z,71.31
2023-03-06T11:09:24.655Z,71.71
2023-03-06T11:12:34.902Z,72.41
2023-03-06T11:15:37.671Z,72.75
2023-03-06T11:18:41.386Z,73.08
2023-03-06T11:21:58.416Z,73.39
2023-03-06T11:25:01.476Z,73.26
2023-03-06T11:28:13.411Z,73.29
2023-03-06T11:31:17.468Z,73.52
2023-03-06T11:34:38.822Z,73.58
2023-03-06T11:38:05.026Z,73.62
2023-03-06T11:41:34.114Z,73.69
2023-03-06T11:44:55.346Z,73.71
2023-03-06T11:48:00.745Z,73.38
2023-03-06T11:51:15.190Z,73.34
2023-03-06T11:54:17.969Z,72.99
2023-03-06T11:57:23.174Z,72.72
2023-03-06T12:00:47.980Z,72.92
2023-03-06T12:03:59.237Z,72.91
2023-03-06T12:07:01.892Z,73.56
2023-03-06T12:10:19.044Z,73.32
2023-03-06T12:16:46.542Z,73.46
2023-03-06T12:19:52.527Z,73.82
2023-03-06T12:23:15.106Z,74.28
2023-03-06T12:26:38.470Z,74.33
2023-03-06T12:29:53.480Z,74.09
2023-03-06T12:33:14.959Z,73.99
2023-03-06T12:36:25.025Z,74.24
2023-03-06T12:39:30.646Z,74.47
2023-03-06T12:42:36.352Z,74.32
2023-03-06T12:45:39.660Z,74.31
2023-03-06T12:48:43.746Z,74.32
2023-03-06T12:51:47.275Z,74.29
2023-03-06T12:54:50.551Z,74.44
2023-03-06T12:57:53.985Z,74.39
2023-03-06T13:01:03.702Z,74.00
2023-03-06T13:04:18.984Z,73.95
2023-03-06T13:07:30.841Z,73.68
2023-03-06T13:10:35.118Z,73.93
2023-03-06T13:13:46.106Z,73.94
2023-03-06T13:16:48.778Z,74.20
2023-03-06T13:20:11.714Z,73.84
2023-03-06T13:23:32.905Z,74.06
2023-03-06T13:26:35.672Z,73.96
2023-03-06T13:29:38.476Z,73.94
2023-03-06T13:32:41.185Z,74.54
2023-03-06T13:35:51.045Z,74.66
2023-03-06T13:39:01.212Z,74.86
2023-03-06T13:42:07.176Z,75.18
2023-03-06T13:45:17.797Z,74.85
2023-03-06T13:48:43.618Z,74.91
2023-03-06T13:51:52.748Z,75.13
2023-03-06T13:55:07.449Z,75.49
2023-03-06T13:58:28.450Z,75.77
2023-03-06T14:01:50.021Z,75.73
2023-03-06T14:04:59.889Z,75.83
2023-03-06T14:08:07.844Z,75.65
2023-03-06T14:11:24.050Z,75.35
2023-03-06T14:14:38.076Z,75.38
2023-03-06T14:17:47.950Z,75.56
2023-03-06T14:20:56.609Z,75.35
2023-03-06T14:24:00.938Z,75.54
2023-03-06T14:27:04.073Z,75.24
2023-03-06T14:30:07.986Z,75.48
2023-03-06T14:33:11.305Z,75.69
2023-03-06T14:36:15.312Z,75.56
2023-03-06T14:39:21.537Z,75.54
2023-03-06T14:42:28.618Z,75.63
2023-03-06T14:45:31.351Z,75.99
2023-03-06T14:48:39.370Z,76.10
2023-03-06T14:51:46.033Z,76.31
2023-03-06T14:54:49.198Z,76.34
2023-03-06T14:57:55.163Z,76.22
2023-03-06T15:01:01.365Z,76.45
2023-03-06T15:04:27.104Z,76.30
2023-03-06T15:07:34.161Z,76.23
2023-03-06T15:10:37.318Z,76.30
2023-03-06T15:13:40.150Z,76.26
2023-03-06T15:16:42.854Z,76.24
2023-03-06T15:19:46.851Z,76.33
2023-03-06T15:22:50.417Z,76.53
2023-03-06T15:25:57.703Z,76.39
2023-03-06T15:29:10.361Z,76.45
2023-03-06T15:32:14.943Z,76.33
2023-03-06T15:35:32.048Z,76.35
2023-03-06T15:38:38.513Z,76.33
2023-03-06T15:41:42.100Z,76.22
2023-03-06T15:44:49.551Z,76.40
2023-03-06T15:47:53.228Z,76.39
2023-03-06T15:50:55.877Z,76.53
2023-03-06T15:54:09.788Z,76.48
2023-03-06T15:57:25.251Z,76.55
2023-03-06T16:00:29.982Z,76.76
2023-03-06T16:03:32.790Z,76.86
2023-03-06T16:06:35.510Z,76.73
2023-03-06T16:09:38.217Z,76.97
2023-03-06T16:12:43.610Z,77.09
2023-03-06T16:15:47.991Z,77.12
2023-03-06T16:18:50.650Z,76.87
2023-03-06T16:21:53.561Z,76.74
2023-03-06T16:24:56.276Z,77.32
2023-03-06T16:27:59.699Z,77.35
2023-03-06T16:31:02.712Z,77.56
2023-03-06T16:34:05.693Z,78.16
2023-03-06T16:37:11.230Z,78.08
2023-03-06T16:40:22.200Z,78.09
2023-03-06T16:43:24.815Z,78.24
2023-03-06T16:46:27.797Z,78.24
2023-03-06T16:49:39.401Z,78.52
2023-03-06T16:52:42.146Z,78.58
2023-03-06T16:55:45.228Z,78.41
2023-03-06T16:58:48.576Z,78.54
2023-03-06T17:01:51.187Z,78.62
2023-03-06T17:04:53.930Z,78.74
2023-03-06T17:07:56.613Z,78.86
2023-03-06T17:10:59.281Z,78.75
2023-03-06T17:14:01.931Z,78.84
2023-03-06T17:17:05.149Z,78.87
2023-03-06T17:20:08.637Z,78.94
2023-03-06T17:23:11.396Z,78.94
2023-03-06T17:26:16.014Z,79.12
2023-03-06T17:29:18.792Z,79.27
2023-03-06T17:32:21.544Z,79.12
2023-03-06T17:35:24.371Z,79.27
2023-03-06T17:38:27.944Z,79.04
2023-03-06T17:41:32.994Z,79.12
2023-03-06T17:44:36.155Z,78.81
2023-03-06T17:47:39.053Z,79.10
2023-03-06T17:50:41.886Z,78.96
2023-03-06T17:53:44.570Z,79.00
2023-03-06T17:56:47.349Z,78.83
2023-03-06T17:59:50.137Z,78.63
2023-03-06T18:02:53.291Z,78.63
2023-03-06T18:06:01.089Z,78.57
2023-03-06T18:09:04.937Z,78.64
2023-03-06T18:12:07.980Z,78.72
2023-03-06T18:15:11.198Z,78.62
2023-03-06T18:18:14.745Z,78.77
2023-03-06T18:21:17.736Z,78.69
2023-03-06T18:24:20.744Z,78.78
2023-03-06T18:27:23.479Z,78.97
2023-03-06T18:30:26.436Z,79.11
2023-03-06T18:33:29.047Z,79.02
2023-03-06T18:36:32.642Z,79.16
2023-03-06T18:39:38.068Z,79.12
2023-03-06T18:42:40.833Z,79.09
2023-03-06T18:45:52.835Z,79.08
2023-03-06T18:48:55.692Z,79.29
2023-03-06T18:51:58.926Z,79.36
2023-03-06T18:55:01.919Z,79.32
2023-03-06T18:58:04.770Z,79.41
2023-03-06T19:01:10.045Z,79.54
2023-03-06T19:04:13.776Z,79.53
2023-03-06T19:07:17.173Z,79.54
2023-03-06T19:10:20.052Z,79.55
2023-03-06T19:13:22.915Z,79.43
2023-03-06T19:16:27.396Z,79.49
2023-03-06T19:19:30.186Z,79.54
2023-03-06T19:22:34.560Z,79.77
2023-03-06T19:25:37.392Z,79.70
2023-03-06T19:28:40.880Z,79.66
2023-03-06T19:31:45.971Z,79.57
2023-03-06T19:34:49.518Z,79.69
2023-03-06T19:37:52.687Z,79.87
2023-03-06T19:40:55.469Z,80.12
2023-03-06T19:43:59.241Z,79.99
2023-03-06T19:47:01.888Z,80.05
2023-03-06T19:50:04.947Z,80.06
2023-03-06T19:53:07.945Z,80.11
2023-03-06T19:56:15.908Z,80.02
2023-03-06T19:59:18.972Z,80.01
2023-03-06T20:02:27.406Z,79.97
2023-03-06T20:05:30.152Z,80.16
2023-03-06T20:08:32.944Z,80.10
2023-03-06T20:11:35.811Z,80.22
2023-03-06T20:14:38.503Z,80.15
2023-03-06T20:17:41.500Z,80.08
2023-03-06T20:20:44.481Z,80.03
2023-03-06T20:23:47.722Z,80.09
2023-03-06T20:26:51.741Z,80.12
2023-03-06T20:29:54.605Z,80.20
2023-03-06T20:32:57.377Z,79.79
2023-03-06T20:36:00.288Z,79.88
2023-03-06T20:39:09.182Z,79.86
2023-03-06T20:42:11.874Z,79.33
2023-03-06T20:45:15.625Z,79.35
2023-03-06T20:48:18.274Z,79.49
2023-03-06T20:51:22.114Z,79.27
2023-03-06T20:54:24.890Z,79.22
2023-03-06T20:57:28.188Z,78.87
2023-03-06T21:00:31.059Z,78.98
2023-03-06T21:03:34.051Z,79.12
2023-03-06T21:06:37.435Z,79.03
2023-03-06T21:09:40.417Z,79.15
2023-03-06T21:12:43.058Z,79.20
2023-03-06T21:15:47.567Z,79.23
2023-03-06T21:18:50.661Z,79.34
2023-03-06T21:21:53.413Z,79.45
2023-03-06T21:24:56.126Z,79.16
2023-03-06T21:28:00.267Z,79.33
2023-03-06T21:31:06.649Z,79.22
2023-03-06T21:34:11.472Z,79.29
2023-03-06T21:37:14.302Z,79.25
2023-03-06T21:40:17.179Z,79.15
2023-03-06T21:43:19.969Z,79.17
2023-03-06T21:46:22.971Z,79.05
2023-03-06T21:49:26.272Z,78.76
2023-03-06T21:52:29.309Z,78.54
2023-03-06T21:55:32.075Z,78.51
2023-03-06T21:58:34.877Z,78.48
2023-03-06T22:01:41.881Z,78.29
2023-03-06T22:04:44.680Z,78.24
2023-03-06T22:07:47.413Z,78.47
2023-03-06T22:10:50.254Z,78.34
2023-03-06T22:13:55.882Z,78.42
2023-03-06T22:16:58.556Z,78.58
2023-03-06T22:20:01.473Z,78.49
2023-03-06T22:23:04.225Z,78.45
2023-03-06T22:26:14.455Z,78.58
2023-03-06T22:29:17.138Z,78.54
2023-03-06T22:32:20.149Z,78.41
2023-03-06T22:35:23.085Z,78.31
2023-03-06T22:38:25.739Z,78.35
2023-03-06T22:41:28.753Z,78.27
2023-03-06T22:44:31.380Z,78.50
2023-03-06T22:47:36.072Z,78.49
2023-03-06T22:50:38.730Z,78.23
2023-03-06T22:53:41.889Z,78.49
2023-03-06T22:56:44.666Z,78.34
2023-03-06T22:59:47.325Z,78.47
2023-03-06T23:02:49.999Z,78.33
2023-03-06T23:05:52.615Z,78.32
2023-03-06T23:08:57.020Z,78.33
2023-03-06T23:11:59.592Z,78.43
2023-03-06T23:15:21.189Z,78.57
2023-03-06T23:18:42.494Z,78.70
2023-03-06T23:22:03.994Z,78.49
2023-03-06T23:25:25.423Z,78.20
2023-03-06T23:28:28.587Z,78.01
2023-03-06T23:31:31.774Z,77.42
2023-03-06T23:34:34.545Z,77.63
2023-03-06T23:37:37.326Z,77.75
2023-03-06T23:40:40.320Z,77.75
2023-03-06T23:43:43.203Z,77.48
2023-03-06T23:46:45.869Z,77.44
2023-03-06T23:49:48.481Z,77.28
2023-03-06T23:52:51.996Z,77.21
2023-03-06T23:55:56.934Z,76.98
2023-03-06T23:58:59.718Z,76.94
